TimeAKDT,TemperatureF,Dew PointF,Humidity,Sea Level PressureIn,VisibilityMPH,Wind Direction,Wind SpeedMPH,Gust SpeedMPH,PrecipitationIn,Events,Conditions,WindDirDegrees,DateUTC
12:16 AM,55.4,51.8,88,30.06,10.0,Calm,Calm,-,N/A,,Overcast,0,2013-09-13 08:16:00
1:16 AM,53.6,51.8,94,30.06,10.0,Calm,Calm,-,N/A,,Overcast,0,2013-09-13 09:16:00
1:56 AM,53.6,48.2,82,30.07,10.0,Calm,Calm,-,N/A,,Scattered Clouds,0,2013-09-13 09:56:00
2:16 AM,53.6,50.0,88,30.07,10.0,Calm,Calm,-,N/A,,Overcast,0,2013-09-13 10:16:00
3:36 AM,51.8,48.2,88,30.07,10.0,Calm,Calm,-,N/A,,Overcast,0,2013-09-13 11:36:00
4:16 AM,51.8,48.2,88,30.08,10.0,Calm,Calm,-,N/A,,Mostly Cloudy,0,2013-09-13 12:16:00
4:36 AM,51.8,48.2,88,30.08,10.0,Calm,Calm,-,N/A,,Overcast,0,2013-09-13 12:36:00
4:56 AM,51.8,48.2,88,30.08,6.0,Calm,Calm,-,N/A,,Overcast,0,2013-09-13 12:56:00
5:56 AM,51.8,48.2,88,30.08,9.0,Calm,Calm,-,N/A,,Overcast,0,2013-09-13 13:56:00
6:55 AM,51.8,48.2,88,30.08,3.0,NNE,4.6,-,N/A,,Mostly Cloudy,30,2013-09-13 14:55:00
7:35 AM,50.0,46.4,87,30.09,1.0,NE,3.5,-,N/A,,Overcast,50,2013-09-13 15:35:00
7:36 AM,48.2,46.4,93,30.09,1.0,ENE,3.5,-,N/A,,Overcast,70,2013-09-13 15:36:00
7:56 AM,50.0,48.2,94,30.09,0.8,Calm,Calm,-,N/A,,Overcast,0,2013-09-13 15:56:00
8:36 AM,51.8,48.2,88,30.09,1.2,ENE,3.5,-,N/A,,Mostly Cloudy,70,2013-09-13 16:36:00
8:56 AM,51.8,48.2,88,30.09,7.0,Calm,Calm,-,N/A,,Overcast,0,2013-09-13 16:56:00
9:25 AM,51.8,48.2,88,30.10,10.0,NNE,3.5,-,N/A,Fog,Patches of Fog,20,2013-09-13 17:25:00
9:36 AM,51.8,48.2,88,30.10,7.0,ENE,3.5,-,N/A,,Overcast,60,2013-09-13 17:36:00
9:55 AM,53.6,48.2,82,30.09,10.0,NNE,3.5,-,N/A,,Mostly Cloudy,30,2013-09-13 17:55:00
10:16 AM,53.6,48.2,82,30.09,10.0,Calm,Calm,-,N/A,,Mostly Cloudy,0,2013-09-13 18:16:00
10:56 AM,55.4,50.0,82,30.08,10.0,ENE,4.6,-,N/A,,Scattered Clouds,60,2013-09-13 18:56:00
11:56 AM,55.4,50.0,82,30.07,10.0,NE,6.9,-,N/A,,Mostly Cloudy,50,2013-09-13 19:56:00
12:56 PM,57.2,50.0,77,30.06,10.0,NE,3.5,-,N/A,,Mostly Cloudy,50,2013-09-13 20:56:00
1:16 PM,57.2,50.0,77,30.06,10.0,Calm,Calm,-,N/A,,Mostly Cloudy,0,2013-09-13 21:16:00
2:16 PM,-9999,-9999,N/A,30.05,10.0,ENE,5.8,-,N/A,,Mostly Cloudy,60,2013-09-13 22:16:00
2:36 PM,55.4,48.2,77,30.06,10.0,East,4.6,-,N/A,,Mostly Cloudy,80,2013-09-13 22:36:00
2:56 PM,57.2,50.0,77,30.05,10.0,NE,6.9,-,N/A,,Mostly Cloudy,50,2013-09-13 22:56:00
3:36 PM,55.4,48.2,77,30.04,10.0,ENE,4.6,-,N/A,,Mostly Cloudy,70,2013-09-13 23:36:00
3:56 PM,57.2,48.2,72,30.04,10.0,East,5.8,-,N/A,,Scattered Clouds,80,2013-09-13 23:56:00
4:16 PM,57.2,48.2,72,30.03,10.0,East,6.9,-,N/A,,Scattered Clouds,90,2013-09-14 00:16:00
6:46 PM,55.4,48.2,77,29.98,10.0,East,5.8,-,N/A,,Clear,80,2013-09-14 02:46:00
7:16 PM,-9999,-9999,N/A,29.97,10.0,NE,4.6,-,N/A,,Clear,50,2013-09-14 03:16:00
7:36 PM,51.8,46.4,82,29.98,10.0,East,4.6,-,N/A,,Clear,90,2013-09-14 03:36:00
8:16 PM,-9999,-9999,N/A,29.97,10.0,East,5.8,-,N/A,,Clear,100,2013-09-14 04:16:00
8:56 PM,51.8,44.6,76,29.98,10.0,East,4.6,-,N/A,,Clear,90,2013-09-14 04:56:00
9:16 PM,51.8,44.6,76,29.98,10.0,East,3.5,-,N/A,,Clear,100,2013-09-14 05:16:00
9:36 PM,51.8,44.6,76,29.97,10.0,East,4.6,-,N/A,,Clear,100,2013-09-14 05:36:00
9:56 PM,50.0,44.6,82,29.97,10.0,East,4.6,-,N/A,,Clear,100,2013-09-14 05:56:00
10:16 PM,50.0,44.6,82,29.97,10.0,ESE,4.6,-,N/A,,Clear,110,2013-09-14 06:16:00
10:36 PM,51.8,44.6,76,29.96,10.0,East,4.6,-,N/A,,Clear,100,2013-09-14 06:36:00
11:36 PM,51.8,46.4,82,29.94,10.0,East,3.5,-,N/A,,Clear,80,2013-09-14 07:36:00
11:56 PM,51.8,46.4,82,29.94,10.0,ENE,3.5,-,N/A,,Clear,70,2013-09-14 07:56:00